Time;durP1;ratioP1;P1;durP2;ratioP2;P2;SDS_P1;SDS_P2;PMS_P1;PMS_P2;Temp;Humidity;BMP_temperature;BMP_pressure;BME280_temperature;BME280_humidity;BME280_pressure;Samples;Min_cycle;Max_cycle;Signal;HPM_P1;HPM_P2
2023/05/31 00:01:11;;;;;;;9.32;4.25;;;13.40;99.90;;;;;;5072565;28;20033;-52
2023/05/31 00:03:40;;;;;;;7.72;4.18;;;13.30;99.90;;;;;;5073007;28;20025;-50
2023/05/31 00:06:07;;;;;;;8.18;4.20;;;13.40;99.90;;;;;;5072423;28;20537;-50
2023/05/31 00:08:33;;;;;;;7.93;4.13;;;13.30;99.90;;;;;;5072535;28;20074;-49
2023/05/31 00:10:58;;;;;;;8.30;4.25;;;13.30;99.90;;;;;;5072556;28;20385;-49
2023/05/31 00:13:24;;;;;;;7.75;3.75;;;13.30;99.90;;;;;;5072492;28;20025;-50
2023/05/31 00:15:50;;;;;;;8.05;3.90;;;13.30;99.90;;;;;;5072402;28;20484;-49
2023/05/31 00:18:16;;;;;;;8.52;4.55;;;13.20;99.90;;;;;;5072593;28;20055;-51
2023/05/31 00:20:41;;;;;;;7.18;3.83;;;13.20;99.90;;;;;;5072816;28;20039;-47
2023/05/31 00:23:07;;;;;;;9.73;4.32;;;13.20;99.90;;;;;;5072065;28;20025;-48
2023/05/31 00:25:33;;;;;;;8.50;4.50;;;13.20;99.90;;;;;;5072618;28;20465;-48
2023/05/31 00:27:58;;;;;;;7.97;3.97;;;13.20;99.90;;;;;;5072265;28;20060;-49
2023/05/31 00:30:25;;;;;;;8.20;4.70;;;13.10;99.90;;;;;;5054344;28;20063;-49
2023/05/31 00:32:50;;;;;;;9.65;5.05;;;13.10;99.90;;;;;;5072624;28;20016;-49
2023/05/31 00:35:16;;;;;;;8.50;4.50;;;13.10;99.90;;;;;;5072339;28;20024;-51
2023/05/31 00:37:43;;;;;;;11.90;5.35;;;13.10;99.90;;;;;;5054415;28;20032;-48
2023/05/31 00:40:09;;;;;;;8.38;4.18;;;13.10;99.90;;;;;;5072362;28;20070;-52
2023/05/31 00:42:34;;;;;;;7.90;4.60;;;13.10;99.90;;;;;;5054627;28;20044;-53
2023/05/31 00:45:00;;;;;;;9.25;5.25;;;13.10;99.90;;;;;;5072357;28;20035;-48
2023/05/31 00:47:27;;;;;;;9.27;4.57;;;13.00;99.90;;;;;;5071471;28;20537;-49
2023/05/31 00:49:54;;;;;;;7.97;4.68;;;13.00;99.90;;;;;;5072683;28;20089;-51
2023/05/31 00:52:20;;;;;;;9.20;4.85;;;13.00;99.90;;;;;;5071983;28;20029;-50
2023/05/31 00:54:46;;;;;;;8.13;4.57;;;12.90;99.90;;;;;;5072803;28;20028;-49
2023/05/31 00:57:11;;;;;;;9.33;4.37;;;12.90;99.90;;;;;;5072709;28;20054;-48
2023/05/31 00:59:37;;;;;;;9.17;4.67;;;12.90;99.90;;;;;;5054610;28;20105;-50
2023/05/31 01:02:03;;;;;;;9.37;4.90;;;12.90;99.90;;;;;;5070958;28;20458;-48
2023/05/31 01:04:32;;;;;;;7.80;4.13;;;12.90;99.90;;;;;;5054616;28;20028;-52
2023/05/31 01:07:00;;;;;;;8.98;5.05;;;12.80;99.90;;;;;;5054264;28;20396;-49
2023/05/31 01:09:28;;;;;;;7.60;4.13;;;12.80;99.90;;;;;;5072906;28;20031;-50
2023/05/31 01:12:12;;;;;;;8.97;4.60;;;12.80;99.90;;;;;;5076344;28;20024;-52
2023/05/31 01:15:17;;;;;;;8.80;4.73;;;12.80;99.90;;;;;;5076034;28;20028;-49
2023/05/31 01:18:11;;;;;;;8.83;4.73;;;12.70;99.90;;;;;;5076404;28;20082;-49
2023/05/31 01:20:43;;;;;;;9.55;4.85;;;12.70;99.90;;;;;;5074951;28;20538;-51
2023/05/31 01:23:41;;;;;;;9.20;4.57;;;12.70;99.90;;;;;;5058003;28;20484;-48
2023/05/31 01:26:20;;;;;;;9.02;4.90;;;12.70;99.90;;;;;;5076139;28;20052;-50
2023/05/31 01:28:49;;;;;;;;;;;12.70;99.90;;;;;;5058554;28;20182;-52
2023/05/31 01:31:19;;;;;;;8.23;4.68;;;12.70;99.90;;;;;;5075283;28;20062;-49
2023/05/31 01:33:46;;;;;;;10.27;4.80;;;12.70;99.90;;;;;;5058145;28;20028;-49
2023/05/31 01:36:12;;;;;;;8.57;4.77;;;12.70;99.90;;;;;;5058379;28;20425;-54
2023/05/31 01:38:41;;;;;;;9.38;5.10;;;12.60;99.90;;;;;;5057891;28;20043;-53
2023/05/31 01:41:08;;;;;;;9.00;5.03;;;12.70;99.90;;;;;;5057823;28;20052;-53
2023/05/31 01:43:37;;;;;;;8.77;4.73;;;12.70;99.90;;;;;;5057746;28;20090;-51
2023/05/31 01:46:05;;;;;;;9.77;5.27;;;12.60;99.90;;;;;;5075909;28;20043;-49
2023/05/31 01:48:31;;;;;;;8.97;4.80;;;12.60;99.90;;;;;;5075882;28;20056;-53
2023/05/31 01:50:58;;;;;;;8.53;4.80;;;12.60;99.90;;;;;;5057564;28;20123;-49
2023/05/31 01:53:25;;;;;;;8.50;4.60;;;12.50;99.90;;;;;;5057855;28;20035;-50
2023/05/31 01:55:53;;;;;;;10.35;5.18;;;12.50;99.90;;;;;;5075799;28;20024;-51
2023/05/31 01:58:21;;;;;;;8.80;4.63;;;12.50;99.90;;;;;;5057859;28;20029;-53
2023/05/31 02:00:49;;;;;;;8.35;4.40;;;12.50;99.90;;;;;;5056805;28;20032;-50
2023/05/31 02:03:15;;;;;;;10.47;5.30;;;12.50;99.90;;;;;;5075777;28;20063;-54
2023/05/31 02:06:00;;;;;;;8.17;4.47;;;12.50;99.90;;;;;;5040715;28;20063;-50
2023/05/31 02:08:27;;;;;;;8.57;4.57;;;12.50;99.90;;;;;;5075286;28;20040;-53
2023/05/31 02:10:54;;;;;;;9.23;5.30;;;12.50;99.90;;;;;;5056995;28;20119;-49
2023/05/31 02:13:23;;;;;;;8.53;4.80;;;12.50;99.90;;;;;;5056936;28;20052;-53
2023/05/31 02:15:49;;;;;;;9.87;5.50;;;12.50;99.90;;;;;;5057218;28;20078;-54
2023/05/31 02:18:17;;;;;;;7.83;4.30;;;12.40;99.90;;;;;;5057380;28;20028;-51
2023/05/31 02:20:44;;;;;;;9.70;4.37;;;12.40;99.90;;;;;;5057092;28;20035;-50
2023/05/31 02:23:16;;;;;;;8.83;4.43;;;12.40;99.90;;;;;;5057425;28;20089;-53
2023/05/31 02:25:46;;;;;;;9.13;5.13;;;12.30;99.90;;;;;;5056920;28;20442;-50
2023/05/31 02:28:12;;;;;;;9.70;4.72;;;12.30;99.90;;;;;;5057452;28;20041;-52
2023/05/31 02:30:38;;;;;;;9.33;5.03;;;12.30;99.90;;;;;;5057077;28;20381;-50
2023/05/31 02:33:04;;;;;;;11.30;5.43;;;12.30;99.90;;;;;;5075021;28;20025;-53
2023/05/31 02:35:32;;;;;;;12.13;5.77;;;12.30;99.90;;;;;;5056923;28;20112;-50
2023/05/31 02:37:57;;;;;;;8.10;4.63;;;12.30;99.90;;;;;;5057006;28;20064;-53
2023/05/31 02:40:23;;;;;;;10.23;5.00;;;12.30;99.90;;;;;;5056926;28;20101;-53
2023/05/31 02:42:49;;;;;;;12.30;4.77;;;12.20;99.90;;;;;;5074790;28;20073;-50
2023/05/31 02:45:15;;;;;;;10.60;5.03;;;12.20;99.90;;;;;;5056793;28;20035;-54
2023/05/31 02:47:41;;;;;;;12.03;5.30;;;12.20;99.90;;;;;;5056644;28;20489;-54
2023/05/31 02:50:09;;;;;;;9.07;4.83;;;12.20;99.90;;;;;;5056568;28;20031;-49
2023/05/31 02:52:42;;;;;;;9.57;5.40;;;12.10;99.90;;;;;;5056383;28;20025;-50
2023/05/31 02:55:27;;;;;;;8.53;4.70;;;12.10;99.90;;;;;;5055937;28;20052;-52
2023/05/31 02:58:14;;;;;;;10.43;5.43;;;12.10;99.90;;;;;;5073089;28;20457;-50
2023/05/31 03:00:45;;;;;;;10.47;5.47;;;12.10;99.90;;;;;;5056191;28;20111;-50
2023/05/31 03:03:12;;;;;;;10.00;4.67;;;12.10;99.90;;;;;;5056593;28;20056;-53
2023/05/31 03:05:54;;;;;;;8.60;4.57;;;12.10;99.90;;;;;;5056657;28;20055;-52
2023/05/31 03:08:20;;;;;;;9.53;5.10;;;12.10;99.90;;;;;;5056390;28;20029;-52
2023/05/31 03:10:49;;;;;;;10.00;5.17;;;12.00;99.90;;;;;;5056324;28;20032;-48
2023/05/31 03:13:15;;;;;;;9.97;5.40;;;12.00;99.90;;;;;;5056161;28;20036;-51
2023/05/31 03:15:41;;;;;;;12.47;4.43;;;12.10;99.90;;;;;;5054028;28;20020;-50
2023/05/31 03:18:07;;;;;;;9.43;5.30;;;12.00;99.90;;;;;;5054824;28;20397;-51
2023/05/31 03:20:34;;;;;;;10.40;5.03;;;12.00;99.90;;;;;;5055466;28;20025;-52
2023/05/31 03:23:01;;;;;;;9.33;5.17;;;12.00;99.90;;;;;;5052190;28;20027;-49
2023/05/31 03:25:27;;;;;;;9.93;4.97;;;12.00;99.90;;;;;;5037216;28;20461;-49
2023/05/31 03:27:53;;;;;;;10.43;5.70;;;12.00;99.90;;;;;;5037055;28;20133;-50
2023/05/31 03:30:18;;;;;;;12.30;5.30;;;12.00;99.90;;;;;;5039173;28;20025;-50
2023/05/31 03:32:52;;;;;;;10.30;4.93;;;12.00;99.90;;;;;;5039393;28;20039;-49
2023/05/31 03:35:18;;;;;;;9.50;5.07;;;12.00;99.90;;;;;;5038597;28;20107;-53
2023/05/31 03:37:45;;;;;;;14.70;5.50;;;12.00;99.90;;;;;;5040528;28;20031;-49
2023/05/31 03:40:12;;;;;;;8.53;4.90;;;12.10;99.90;;;;;;5044345;28;20123;-52
2023/05/31 03:42:38;;;;;;;8.97;4.67;;;12.10;99.90;;;;;;5045527;28;20116;-50
2023/05/31 03:45:06;;;;;;;10.60;5.23;;;12.10;99.90;;;;;;5030671;28;20025;-50
2023/05/31 03:47:32;;;;;;;10.40;4.77;;;12.10;99.90;;;;;;5047676;28;20424;-49
2023/05/31 03:49:59;;;;;;;11.37;5.07;;;12.10;99.90;;;;;;5040204;28;20504;-52
2023/05/31 03:52:25;;;;;;;13.20;5.50;;;12.10;99.90;;;;;;5043045;28;20017;-50
2023/05/31 03:54:51;;;;;;;9.23;4.77;;;12.10;99.90;;;;;;5050023;28;20051;-52
2023/05/31 03:57:16;;;;;;;9.33;4.80;;;12.10;99.90;;;;;;5042482;28;20480;-53
2023/05/31 03:59:42;;;;;;;10.70;5.77;;;12.10;99.90;;;;;;5037023;28;20434;-50
2023/05/31 04:02:08;;;;;;;10.87;5.27;;;12.10;99.90;;;;;;5041869;28;20044;-50
2023/05/31 04:04:34;;;;;;;10.10;5.60;;;12.10;99.90;;;;;;5038398;28;20036;-53
2023/05/31 04:07:01;;;;;;;11.40;5.30;;;12.10;99.90;;;;;;5061015;28;20047;-52
2023/05/31 04:09:27;;;;;;;11.47;5.57;;;12.10;99.90;;;;;;5029626;28;20450;-52
2023/05/31 04:11:53;;;;;;;9.27;5.07;;;12.10;99.90;;;;;;5049847;28;20028;-54
2023/05/31 04:14:19;;;;;;;12.37;5.07;;;12.10;99.90;;;;;;4995271;28;1114377;-50
2023/05/31 04:16:47;;;;;;;9.23;5.27;;;12.20;99.90;;;;;;5048417;28;20043;-52
2023/05/31 04:19:14;;;;;;;10.93;5.30;;;12.20;99.90;;;;;;5044639;28;20054;-52
2023/05/31 04:21:40;;;;;;;11.33;5.63;;;12.20;99.90;;;;;;5049064;28;20032;-52
2023/05/31 04:24:06;;;;;;;10.63;4.90;;;12.20;99.90;;;;;;5036864;28;20366;-50
2023/05/31 04:26:32;;;;;;;9.70;4.67;;;12.20;99.90;;;;;;5039778;28;20033;-53
2023/05/31 04:28:59;;;;;;;7.90;4.50;;;12.30;99.90;;;;;;5037945;28;20441;-49
2023/05/31 04:31:28;;;;;;;10.83;5.10;;;12.20;99.90;;;;;;5030984;28;20478;-48
2023/05/31 04:33:56;;;;;;;10.23;5.13;;;12.30;99.90;;;;;;5046117;28;20377;-51
2023/05/31 04:36:24;;;;;;;10.15;5.53;;;12.30;99.90;;;;;;5046827;28;20393;-51
2023/05/31 04:38:51;;;;;;;10.13;5.07;;;12.40;99.90;;;;;;5048187;28;20032;-51
2023/05/31 04:41:25;;;;;;;9.98;5.35;;;12.40;99.90;;;;;;5033138;28;20379;-52
2023/05/31 04:43:53;;;;;;;9.80;5.22;;;12.40;99.90;;;;;;5042981;28;20404;-49
2023/05/31 04:46:22;;;;;;;8.10;4.80;;;12.50;99.90;;;;;;5045865;28;20024;-48
2023/05/31 04:48:49;;;;;;;11.73;5.18;;;12.50;99.90;;;;;;5043039;28;20021;-49
2023/05/31 04:51:17;;;;;;;11.40;4.78;;;12.50;99.90;;;;;;5052209;28;20033;-51
2023/05/31 04:53:47;;;;;;;10.02;4.93;;;12.60;99.90;;;;;;5055373;28;20025;-50
2023/05/31 04:56:14;;;;;;;9.20;5.18;;;12.70;99.90;;;;;;5046790;28;20545;-52
2023/05/31 04:58:41;;;;;;;10.80;5.10;;;12.70;99.90;;;;;;5055194;28;20078;-53
2023/05/31 05:01:07;;;;;;;10.60;4.82;;;12.80;99.90;;;;;;5064974;28;20021;-52
2023/05/31 05:03:44;;;;;;;11.00;5.00;;;12.80;99.90;;;;;;5055762;28;20024;-49
2023/05/31 05:06:15;;;;;;;11.00;5.30;;;12.80;99.90;;;;;;5054489;28;20036;-52
2023/05/31 05:08:46;;;;;;;8.85;4.30;;;12.90;99.90;;;;;;5046139;28;20391;-50
2023/05/31 05:11:14;;;;;;;9.85;5.05;;;13.00;99.90;;;;;;5047013;28;20047;-53
2023/05/31 05:13:41;;;;;;;9.18;4.78;;;13.00;99.90;;;;;;5052683;28;20612;-49
2023/05/31 05:16:08;;;;;;;10.57;5.38;;;13.10;99.90;;;;;;5039685;28;20028;-47
2023/05/31 05:18:36;;;;;;;10.23;4.90;;;13.20;99.90;;;;;;5037995;28;20033;-48
2023/05/31 05:21:06;;;;;;;8.88;4.90;;;13.30;99.90;;;;;;5071826;28;20043;-47
2023/05/31 05:23:37;;;;;;;11.23;4.80;;;13.30;99.90;;;;;;5045921;28;20024;-47
2023/05/31 05:26:03;;;;;;;9.32;5.13;;;13.40;99.90;;;;;;5048700;28;20106;-50
2023/05/31 05:28:29;;;;;;;11.50;5.30;;;13.50;99.90;;;;;;5050838;28;20094;-48
2023/05/31 05:30:55;;;;;;;10.60;4.90;;;13.50;99.90;;;;;;5045119;28;20031;-48
2023/05/31 05:33:23;;;;;;;9.32;5.32;;;13.50;99.90;;;;;;5045726;28;20056;-49
2023/05/31 05:35:49;;;;;;;8.95;4.78;;;13.60;99.90;;;;;;5036638;28;20031;-47
2023/05/31 05:38:15;;;;;;;8.95;4.85;;;13.70;99.90;;;;;;5053833;28;20029;-48
2023/05/31 05:40:42;;;;;;;8.85;5.00;;;13.70;99.90;;;;;;5052578;28;20032;-48
2023/05/31 05:43:08;;;;;;;9.77;5.10;;;13.80;99.90;;;;;;5053197;28;20035;-48
2023/05/31 05:45:44;;;;;;;10.98;4.72;;;13.90;99.90;;;;;;5045732;28;20040;-48
2023/05/31 05:48:10;;;;;;;9.77;5.22;;;14.00;99.90;;;;;;5054129;28;20039;-48
2023/05/31 05:50:35;;;;;;;11.88;5.55;;;14.10;99.90;;;;;;5052151;28;20082;-48
2023/05/31 05:53:01;;;;;;;9.82;4.93;;;14.20;99.90;;;;;;5042700;28;20124;-49
2023/05/31 05:55:30;;;;;;;12.65;4.75;;;14.30;99.90;;;;;;5041900;28;20020;-48
2023/05/31 05:57:56;;;;;;;11.27;4.68;;;14.40;99.90;;;;;;5037562;28;20357;-48
2023/05/31 06:00:55;;;;;;;10.18;4.75;;;14.50;99.90;;;;;;5066644;28;20560;-48
2023/05/31 06:03:23;;;;;;;7.80;4.32;;;14.60;99.90;;;;;;5049186;28;20128;-48
2023/05/31 06:05:49;;;;;;;11.53;5.30;;;14.70;99.90;;;;;;5035536;28;20021;-49
2023/05/31 06:08:15;;;;;;;8.32;4.28;;;14.90;99.90;;;;;;5040650;28;20379;-49
2023/05/31 06:10:41;;;;;;;10.35;4.82;;;14.90;99.90;;;;;;5054341;28;20028;-51
2023/05/31 06:13:08;;;;;;;11.00;4.85;;;15.00;99.90;;;;;;5054158;28;20032;-48
2023/05/31 06:15:34;;;;;;;8.60;4.15;;;15.00;99.90;;;;;;5045764;28;20051;-48
2023/05/31 06:18:00;;;;;;;9.80;4.38;;;15.10;99.90;;;;;;5052691;28;20078;-48
2023/05/31 06:20:26;;;;;;;9.65;4.45;;;15.30;99.90;;;;;;5053451;28;20028;-48
2023/05/31 06:22:53;;;;;;;12.25;4.57;;;15.40;99.90;;;;;;5049196;28;20526;-49
2023/05/31 06:25:20;;;;;;;7.05;4.20;;;15.50;99.90;;;;;;5033143;28;20087;-50
2023/05/31 06:27:46;;;;;;;13.38;4.95;;;15.60;99.90;;;;;;5041548;28;20462;-48
2023/05/31 06:30:13;;;;;;;8.27;4.40;;;15.60;99.90;;;;;;5040475;28;20024;-48
2023/05/31 06:32:42;;;;;;;9.00;4.50;;;15.70;99.90;;;;;;5042151;28;20403;-48
2023/05/31 06:35:08;;;;;;;9.63;4.88;;;15.80;99.90;;;;;;5046314;28;20112;-53
2023/05/31 06:37:34;;;;;;;9.63;4.30;;;16.00;99.90;;;;;;5050953;28;20542;-53
2023/05/31 06:40:00;;;;;;;9.50;5.10;;;16.00;99.90;;;;;;5045861;28;20040;-50
2023/05/31 06:42:26;;;;;;;9.80;4.78;;;16.20;99.90;;;;;;5062848;28;20044;-49
2023/05/31 06:44:52;;;;;;;9.00;4.22;;;16.30;99.90;;;;;;5061571;28;20618;-48
2023/05/31 06:47:29;;;;;;;9.57;4.30;;;16.40;99.90;;;;;;5042823;28;20142;-48
2023/05/31 06:50:29;;;;;;;7.10;3.95;;;16.50;99.90;;;;;;4983979;28;20046;-52
2023/05/31 06:53:14;;;;;;;8.40;4.10;;;16.50;99.90;;;;;;5043731;28;20079;-49
2023/05/31 06:55:45;;;;;;;7.38;4.13;;;16.60;99.90;;;;;;5051089;28;20032;-52
2023/05/31 06:58:16;;;;;;;9.52;4.03;;;16.70;99.90;;;;;;5029622;28;20159;-54
2023/05/31 07:00:43;;;;;;;;;;;16.80;99.90;;;;;;5041569;28;20042;-49
2023/05/31 07:03:10;;;;;;;8.55;4.10;;;16.90;99.90;;;;;;5051836;28;19985;-49
2023/05/31 07:05:36;;;;;;;6.50;3.53;;;17.00;99.90;;;;;;5050396;28;20028;-47
2023/05/31 07:08:02;;;;;;;7.82;3.90;;;17.10;99.90;;;;;;5044042;28;20098;-48
2023/05/31 07:10:31;;;;;;;7.75;4.00;;;17.00;99.90;;;;;;5042575;28;20055;-51
2023/05/31 07:12:57;;;;;;;6.93;3.97;;;17.00;99.90;;;;;;5065446;28;20377;-53
2023/05/31 07:15:23;;;;;;;7.70;4.25;;;17.00;99.90;;;;;;5040744;28;20048;-48
2023/05/31 07:17:49;;;;;;;7.85;4.32;;;17.10;99.90;;;;;;5051607;28;20516;-49
2023/05/31 07:20:15;;;;;;;7.72;3.88;;;17.20;99.90;;;;;;5045473;28;20112;-52
2023/05/31 07:22:41;;;;;;;5.95;3.30;;;17.40;99.90;;;;;;5067856;28;20179;-51
2023/05/31 07:25:08;;;;;;;7.18;3.33;;;17.60;99.90;;;;;;5069024;28;20029;-48
2023/05/31 07:27:34;;;;;;;6.40;4.13;;;17.70;99.90;;;;;;5043369;28;20413;-50
2023/05/31 07:29:59;;;;;;;5.90;3.67;;;17.90;99.90;;;;;;5061047;28;20016;-48
2023/05/31 07:32:25;;;;;;;8.90;4.40;;;18.10;99.90;;;;;;5061525;28;20035;-49
2023/05/31 07:34:51;;;;;;;9.27;3.90;;;18.30;99.90;;;;;;5057832;28;20021;-48
2023/05/31 07:37:17;;;;;;;10.45;4.70;;;18.40;99.90;;;;;;5049656;28;20052;-49
2023/05/31 07:39:44;;;;;;;7.93;4.15;;;18.50;99.90;;;;;;5059796;28;20086;-51
2023/05/31 07:42:12;;;;;;;12.05;4.47;;;18.70;99.90;;;;;;5062651;28;20322;-51
2023/05/31 07:44:38;;;;;;;8.43;3.72;;;18.80;99.90;;;;;;5067360;28;20033;-53
2023/05/31 07:47:04;;;;;;;7.93;3.63;;;18.80;99.90;;;;;;5056846;28;20427;-53
2023/05/31 07:49:30;;;;;;;6.60;3.33;;;19.00;99.90;;;;;;5057639;28;20039;-52
2023/05/31 07:51:56;;;;;;;8.57;3.33;;;19.00;99.90;;;;;;5051313;28;20098;-51
2023/05/31 07:54:21;;;;;;;9.32;4.25;;;19.10;99.90;;;;;;5060517;28;20043;-51
2023/05/31 07:56:47;;;;;;;8.57;3.42;;;19.20;99.90;;;;;;5056970;28;20024;-55
2023/05/31 07:59:13;;;;;;;7.78;3.95;;;19.30;99.90;;;;;;5050418;28;20031;-53
2023/05/31 08:01:40;;;;;;;6.15;3.33;;;19.40;99.90;;;;;;5057103;28;20033;-54
2023/05/31 08:04:07;;;;;;;6.80;3.55;;;19.40;99.90;;;;;;5038393;28;20025;-51
2023/05/31 08:06:33;;;;;;;7.18;3.53;;;19.50;99.90;;;;;;5064361;28;20146;-49
2023/05/31 08:09:00;;;;;;;5.28;3.20;;;19.60;99.90;;;;;;5051708;28;20081;-50
2023/05/31 08:11:27;;;;;;;7.63;3.38;;;19.60;99.90;;;;;;5056421;28;20025;-50
2023/05/31 08:13:53;;;;;;;7.28;3.65;;;19.70;99.90;;;;;;5063696;28;20060;-51
2023/05/31 08:16:19;;;;;;;8.85;3.78;;;19.70;99.90;;;;;;5062293;28;20064;-50
2023/05/31 08:18:45;;;;;;;6.93;3.42;;;19.80;99.90;;;;;;5059665;28;20032;-53
2023/05/31 08:21:11;;;;;;;6.45;3.17;;;19.80;99.90;;;;;;5053591;28;20339;-51
2023/05/31 08:23:37;;;;;;;7.03;3.55;;;19.90;99.90;;;;;;5048112;28;20025;-50
2023/05/31 08:26:02;;;;;;;6.72;3.45;;;20.00;99.90;;;;;;5061241;28;20028;-50
2023/05/31 08:28:30;;;;;;;7.45;3.33;;;20.00;99.90;;;;;;5059309;28;20043;-48
2023/05/31 08:30:56;;;;;;;6.18;2.90;;;20.10;99.10;;;;;;5055702;28;20048;-49
2023/05/31 08:33:22;;;;;;;6.68;3.55;;;20.10;99.70;;;;;;5064020;28;20024;-48
2023/05/31 08:35:47;;;;;;;7.35;3.35;;;20.20;99.90;;;;;;5059185;28;20032;-48
2023/05/31 08:38:13;;;;;;;7.00;3.17;;;20.20;99.90;;;;;;5061622;28;20366;-49
2023/05/31 08:40:39;;;;;;;7.18;4.22;;;20.40;99.90;;;;;;5063690;28;20066;-50
2023/05/31 08:43:15;;;;;;;9.13;3.67;;;20.40;99.30;;;;;;5053227;28;20025;-48
2023/05/31 08:45:42;;;;;;;6.47;3.28;;;20.50;99.20;;;;;;5067435;28;20037;-50
2023/05/31 08:48:18;;;;;;;5.45;2.72;;;20.60;99.10;;;;;;5067914;28;20158;-50
2023/05/31 08:50:46;;;;;;;8.45;3.38;;;20.60;98.10;;;;;;5064959;28;20032;-50
2023/05/31 08:53:15;;;;;;;7.72;3.92;;;20.60;97.80;;;;;;5054083;28;20453;-49
2023/05/31 08:55:43;;;;;;;8.20;3.05;;;20.70;97.80;;;;;;5056682;28;20038;-47
2023/05/31 08:58:10;;;;;;;6.10;3.33;;;20.70;98.00;;;;;;5062170;28;20036;-49
2023/05/31 09:00:36;;;;;;;9.40;3.55;;;20.90;97.40;;;;;;5064266;28;20418;-50
2023/05/31 09:03:06;;;;;;;5.43;2.78;;;20.90;98.30;;;;;;5060750;28;20482;-52
2023/05/31 09:05:32;;;;;;;9.05;2.70;;;20.90;96.70;;;;;;5060327;28;20024;-48
2023/05/31 09:08:02;;;;;;;6.80;3.30;;;21.00;96.30;;;;;;5067979;28;20029;-53
2023/05/31 09:10:28;;;;;;;4.45;2.53;;;21.20;96.90;;;;;;5070178;28;20663;-51
2023/05/31 09:12:55;;;;;;;5.93;2.53;;;21.30;95.10;;;;;;5069983;28;20021;-48
2023/05/31 09:15:23;;;;;;;6.93;3.50;;;21.30;96.00;;;;;;5070219;28;20401;-49
2023/05/31 09:17:50;;;;;;;5.68;2.28;;;21.40;94.30;;;;;;5070185;28;20025;-52
2023/05/31 09:20:16;;;;;;;6.40;2.38;;;21.40;93.70;;;;;;5069750;28;20032;-50
2023/05/31 09:22:42;;;;;;;3.97;2.40;;;21.50;93.10;;;;;;5069743;28;20036;-51
2023/05/31 09:25:08;;;;;;;7.13;2.25;;;21.40;92.30;;;;;;5070091;28;20028;-48
2023/05/31 09:27:36;;;;;;;4.75;2.33;;;21.50;92.80;;;;;;5070093;28;20032;-49
2023/05/31 09:30:08;;;;;;;11.57;3.00;;;21.60;93.30;;;;;;5052060;28;20174;-51
2023/05/31 09:32:35;;;;;;;5.38;2.25;;;21.60;91.60;;;;;;5073686;28;20029;-49
2023/05/31 09:35:15;;;;;;;7.38;2.55;;;21.70;92.20;;;;;;5073663;28;20082;-52
2023/05/31 09:37:45;;;;;;;6.03;2.50;;;21.80;94.00;;;;;;5073591;28;20044;-50
2023/05/31 09:40:21;;;;;;;5.55;2.38;;;21.80;92.60;;;;;;5073821;28;20035;-49
2023/05/31 09:42:51;;;;;;;5.88;2.20;;;21.90;93.40;;;;;;5073627;28;20036;-48
2023/05/31 09:45:17;;;;;;;4.40;1.83;;;22.10;90.90;;;;;;5073495;28;20514;-52
2023/05/31 09:47:44;;;;;;;5.90;2.35;;;22.10;91.50;;;;;;5073969;28;20037;-49
2023/05/31 09:50:11;;;;;;;4.63;1.80;;;22.20;91.10;;;;;;5073571;28;20021;-49
2023/05/31 09:52:40;;;;;;;3.90;1.60;;;22.30;90.70;;;;;;5073377;28;20032;-49
2023/05/31 09:55:12;;;;;;;4.00;1.65;;;22.40;91.40;;;;;;5073494;28;20036;-49
2023/05/31 09:57:43;;;;;;;5.43;1.75;;;22.40;89.60;;;;;;5055569;28;20082;-51
2023/05/31 10:00:16;;;;;;;3.72;2.13;;;22.60;87.00;;;;;;5073298;28;20039;-54
2023/05/31 10:02:47;;;;;;;3.92;1.83;;;22.60;87.40;;;;;;5073496;28;20039;-51
2023/05/31 10:05:13;;;;;;;6.57;2.28;;;22.70;85.10;;;;;;5072928;28;20405;-51
2023/05/31 10:07:41;;;;;;;4.40;1.88;;;22.60;84.20;;;;;;5073048;28;20074;-54
2023/05/31 10:10:08;;;;;;;6.82;1.80;;;22.60;86.10;;;;;;5073069;28;20060;-53
2023/05/31 10:12:48;;;;;;;4.25;1.60;;;22.70;86.70;;;;;;5072738;28;20033;-53
2023/05/31 10:15:17;;;;;;;2.40;1.50;;;22.80;85.30;;;;;;5072787;28;20089;-50
2023/05/31 10:17:55;;;;;;;3.13;1.45;;;22.80;84.60;;;;;;5072790;28;20040;-51
2023/05/31 10:20:24;;;;;;;4.85;2.13;;;22.90;83.90;;;;;;5072700;28;20036;-54
2023/05/31 10:22:54;;;;;;;4.32;1.45;;;22.90;82.00;;;;;;5072634;28;20036;-52
2023/05/31 10:25:26;;;;;;;4.22;1.30;;;23.00;82.20;;;;;;5072417;28;20063;-53
2023/05/31 10:27:55;;;;;;;4.20;1.40;;;23.10;81.30;;;;;;5072755;28;20436;-54
2023/05/31 10:30:26;;;;;;;3.20;1.33;;;23.10;81.50;;;;;;5072248;28;20052;-54
2023/05/31 10:33:05;;;;;;;3.63;1.60;;;23.10;79.30;;;;;;5054487;28;20040;-54
2023/05/31 10:35:31;;;;;;;3.75;1.38;;;23.20;80.60;;;;;;5072282;28;20020;-54
2023/05/31 10:37:58;;;;;;;2.67;1.60;;;23.30;79.60;;;;;;5072317;28;20063;-52
2023/05/31 10:40:30;;;;;;;3.85;1.40;;;23.30;77.10;;;;;;5072196;28;20516;-54
2023/05/31 10:43:22;;;;;;;3.80;1.58;;;23.30;76.80;;;;;;5071158;28;20477;-53
2023/05/31 10:45:56;;;;;;;4.95;1.85;;;23.20;79.20;;;;;;5068322;28;20437;-53
2023/05/31 10:48:29;;;;;;;5.43;1.42;;;23.20;78.40;;;;;;5072122;28;20032;-49
2023/05/31 10:50:59;;;;;;;4.53;1.40;;;23.20;77.10;;;;;;5072037;28;20504;-54
2023/05/31 10:53:30;;;;;;;4.78;1.40;;;23.30;76.50;;;;;;5072243;28;20056;-49
2023/05/31 10:56:06;;;;;;;3.15;1.58;;;23.40;75.60;;;;;;5072060;28;20493;-52
2023/05/31 10:58:43;;;;;;;3.60;1.35;;;23.60;76.70;;;;;;5072194;28;20341;-49
2023/05/31 11:01:14;;;;;;;3.40;1.30;;;23.50;73.90;;;;;;5071849;28;20033;-54
2023/05/31 11:03:46;;;;;;;4.70;1.38;;;23.60;75.30;;;;;;5071817;28;20078;-53
2023/05/31 11:06:14;;;;;;;2.50;1.27;;;23.50;74.60;;;;;;5071797;28;20492;-48
2023/05/31 11:09:16;;;;;;;2.88;1.05;;;23.60;76.30;;;;;;5071799;28;20111;-51
2023/05/31 11:11:45;;;;;;;3.97;1.40;;;23.70;75.80;;;;;;4989729;28;20086;-52
2023/05/31 11:14:29;;;;;;;3.42;1.50;;;23.60;73.30;;;;;;5056602;28;20032;-52
2023/05/31 11:16:59;;;;;;;3.30;1.42;;;23.70;75.20;;;;;;5071842;28;20020;-53
2023/05/31 11:19:35;;;;;;;4.30;1.73;;;23.70;74.50;;;;;;5053972;28;20033;-51
2023/05/31 11:22:10;;;;;;;3.97;2.03;;;23.70;74.50;;;;;;5071563;28;20024;-53
2023/05/31 11:24:50;;;;;;;3.72;1.50;;;23.70;73.70;;;;;;5071331;28;20028;-52
2023/05/31 11:27:16;;;;;;;6.18;1.60;;;23.70;73.70;;;;;;5071426;28;20530;-51
2023/05/31 11:29:47;;;;;;;3.92;1.50;;;23.80;74.60;;;;;;5071419;28;20416;-50
2023/05/31 11:32:36;;;;;;;4.55;1.70;;;23.70;75.40;;;;;;5071046;28;20048;-51
2023/05/31 11:35:03;;;;;;;3.35;1.60;;;23.70;76.70;;;;;;5056926;28;20043;-49
2023/05/31 11:37:37;;;;;;;3.97;1.63;;;23.70;74.80;;;;;;5071556;28;20059;-51
2023/05/31 11:40:08;;;;;;;2.63;1.30;;;23.70;74.00;;;;;;5071090;28;20497;-50
2023/05/31 11:42:42;;;;;;;4.53;1.30;;;23.60;73.40;;;;;;5070933;28;20119;-51
2023/05/31 11:45:10;;;;;;;3.80;1.60;;;23.60;73.20;;;;;;5071169;28;20111;-49
2023/05/31 11:48:04;;;;;;;3.42;1.42;;;23.70;72.90;;;;;;5071122;28;20037;-51
2023/05/31 11:50:31;;;;;;;4.43;1.50;;;23.70;73.50;;;;;;5070894;28;20040;-50
2023/05/31 11:52:59;;;;;;;5.53;1.40;;;23.90;73.90;;;;;;5070788;28;20063;-49
2023/05/31 11:55:32;;;;;;;3.83;1.60;;;24.00;74.50;;;;;;5070734;28;20461;-50
2023/05/31 11:57:59;;;;;;;4.07;1.15;;;24.10;74.40;;;;;;5071013;28;20404;-52
2023/05/31 12:00:25;;;;;;;4.40;1.50;;;24.10;72.90;;;;;;5070662;28;20389;-52
2023/05/31 12:02:53;;;;;;;2.70;1.55;;;24.00;72.40;;;;;;5070801;28;20039;-49
2023/05/31 12:05:19;;;;;;;5.05;1.42;;;24.00;73.20;;;;;;5070659;28;20028;-53
2023/05/31 12:07:46;;;;;;;4.53;1.70;;;24.00;73.00;;;;;;5070807;28;20039;-52
2023/05/31 12:10:12;;;;;;;4.60;1.40;;;24.00;73.50;;;;;;5070664;28;20431;-52
2023/05/31 12:12:41;;;;;;;3.97;1.40;;;24.00;72.10;;;;;;5070536;28;20020;-53
2023/05/31 12:15:11;;;;;;;2.83;1.50;;;23.90;72.60;;;;;;5070655;28;20041;-50
2023/05/31 12:17:38;;;;;;;3.53;1.35;;;23.90;72.10;;;;;;5070787;28;20032;-49
2023/05/31 12:20:12;;;;;;;5.13;1.35;;;23.90;72.10;;;;;;5070360;28;20378;-51
2023/05/31 12:22:38;;;;;;;2.53;1.08;;;23.90;72.50;;;;;;5070734;28;20028;-49
2023/05/31 12:25:04;;;;;;;4.68;1.48;;;24.00;72.50;;;;;;5070584;28;20036;-50
2023/05/31 12:27:31;;;;;;;4.68;1.38;;;24.00;73.00;;;;;;5071042;28;20461;-49
2023/05/31 12:29:58;;;;;;;4.40;1.70;;;24.10;72.90;;;;;;5070714;28;20408;-49
2023/05/31 12:32:28;;;;;;;2.45;0.93;;;24.10;71.90;;;;;;5070372;28;20032;-49
2023/05/31 12:35:08;;;;;;;4.18;1.60;;;24.10;72.70;;;;;;5070600;28;20115;-51
2023/05/31 12:37:38;;;;;;;2.75;1.48;;;24.10;71.00;;;;;;5070789;28;20055;-50
2023/05/31 12:40:09;;;;;;;2.35;1.13;;;24.10;70.70;;;;;;5070782;28;20028;-53
2023/05/31 12:42:35;;;;;;;2.63;1.27;;;24.20;71.40;;;;;;5070747;28;20370;-53
2023/05/31 12:45:07;;;;;;;4.18;1.48;;;24.20;71.40;;;;;;5070465;28;20412;-53
2023/05/31 12:47:34;;;;;;;3.20;1.10;;;24.20;71.40;;;;;;5070552;28;20641;-49
2023/05/31 12:50:10;;;;;;;3.05;1.30;;;24.30;71.40;;;;;;5070483;28;20450;-51
2023/05/31 12:52:41;;;;;;;2.33;1.20;;;24.30;72.10;;;;;;5070294;28;20032;-50
2023/05/31 12:55:08;;;;;;;4.95;1.80;;;24.20;71.00;;;;;;5070330;28;20033;-51